createdAt,value
2019-05-06T00:00:05.301Z,1002.95
2019-05-06T00:01:05.456Z,1002.93
2019-05-06T00:02:05.623Z,1002.91
2019-05-06T00:03:06.563Z,1003.00
2019-05-06T00:04:06.553Z,1002.92
2019-05-06T00:05:07.151Z,1002.94
2019-05-06T00:06:06.402Z,1002.94
2019-05-06T00:07:07.059Z,1003.00
2019-05-06T00:08:06.672Z,1002.92
2019-05-06T00:09:06.805Z,1002.93
2019-05-06T00:10:07.049Z,1002.94
2019-05-06T00:11:07.563Z,1002.94
2019-05-06T00:12:08.053Z,1002.91
2019-05-06T00:13:07.568Z,1002.86
2019-05-06T00:14:07.735Z,1002.97
2019-05-06T00:15:07.911Z,1002.92
2019-05-06T00:16:09.053Z,1002.97
2019-05-06T00:17:09.049Z,1002.95
2019-05-06T00:18:08.438Z,1002.99
2019-05-06T00:19:08.606Z,1002.98
2019-05-06T00:20:09.551Z,1002.96
2019-05-06T00:21:09.557Z,1003.02
2019-05-06T00:22:10.054Z,1002.99
2019-05-06T00:23:09.323Z,1003.00
2019-05-06T00:24:09.520Z,1002.95
2019-05-06T00:25:09.687Z,1002.99
2019-05-06T00:26:09.842Z,1002.95
2019-05-06T00:27:10.005Z,1002.99
2019-05-06T00:28:10.195Z,1003.00
2019-05-06T00:29:10.397Z,1003.00
2019-05-06T00:30:10.586Z,1002.99
2019-05-06T00:31:14.033Z,1002.96
2019-05-06T00:32:14.946Z,1003.03
2019-05-06T00:33:11.035Z,1002.98
2019-05-06T00:34:11.240Z,1003.05
2019-05-06T00:35:11.434Z,1003.05
2019-05-06T00:36:11.604Z,1003.06
2019-05-06T00:37:11.789Z,1003.02
2019-05-06T00:38:13.888Z,1003.04
2019-05-06T00:39:12.252Z,1003.02
2019-05-06T00:40:14.057Z,1003.10
2019-05-06T00:41:14.367Z,1003.13
2019-05-06T00:42:13.928Z,1003.07
2019-05-06T00:43:14.084Z,1003.05
2019-05-06T00:44:14.379Z,1003.02
2019-05-06T00:45:14.268Z,1003.07
2019-05-06T00:46:14.054Z,1003.09
2019-05-06T00:47:13.641Z,1003.08
2019-05-06T00:48:14.829Z,1003.10
2019-05-06T00:49:14.555Z,1003.10
2019-05-06T00:50:14.327Z,1003.10
2019-05-06T00:51:16.055Z,1003.10
2019-05-06T00:52:15.056Z,1003.15
2019-05-06T00:53:14.725Z,1003.14
2019-05-06T00:54:14.895Z,1003.06
2019-05-06T00:55:15.081Z,1003.13
2019-05-06T00:56:15.260Z,1003.10
2019-05-06T00:57:16.060Z,1003.09
2019-05-06T00:58:15.578Z,1003.11
2019-05-06T00:59:16.553Z,1003.09
2019-05-06T01:00:16.064Z,1003.09
2019-05-06T01:01:25.915Z,1003.15
2019-05-06T01:02:18.344Z,1003.13
2019-05-06T01:03:16.463Z,1003.08
2019-05-06T01:04:16.686Z,1003.03
2019-05-06T01:05:16.888Z,1003.09
2019-05-06T01:06:17.071Z,1003.08
2019-05-06T01:07:17.272Z,1003.01
2019-05-06T01:08:17.436Z,1003.01
2019-05-06T01:09:17.650Z,1003.10
2019-05-06T01:10:17.846Z,1003.02
2019-05-06T01:11:18.005Z,1003.07
2019-05-06T01:12:18.210Z,1003.04
2019-05-06T01:13:18.376Z,1003.07
2019-05-06T01:14:19.068Z,1003.07
2019-05-06T01:15:18.722Z,1003.07
2019-05-06T01:16:19.563Z,1003.15
2019-05-06T01:17:19.080Z,1003.10
2019-05-06T01:18:19.579Z,1003.12
2019-05-06T01:19:19.477Z,1003.02
2019-05-06T01:20:19.633Z,1003.08
2019-05-06T01:21:19.773Z,1003.14
2019-05-06T01:22:20.555Z,1003.16
2019-05-06T01:23:20.077Z,1003.19
2019-05-06T01:24:20.222Z,1003.11
2019-05-06T01:25:20.377Z,1003.12
2019-05-06T01:26:20.520Z,1003.15
2019-05-06T01:27:20.690Z,1003.18
2019-05-06T01:28:20.850Z,1003.15
2019-05-06T01:29:21.026Z,1003.20
2019-05-06T01:30:24.238Z,1003.17
2019-05-06T01:31:21.292Z,1003.19
2019-05-06T01:32:23.525Z,1003.22
2019-05-06T01:33:21.684Z,1003.15
2019-05-06T01:34:21.861Z,1003.23
2019-05-06T01:35:22.017Z,1003.24
2019-05-06T01:36:22.152Z,1003.20
2019-05-06T01:37:24.363Z,1003.26
2019-05-06T01:38:24.274Z,1003.26
2019-05-06T01:39:24.424Z,1003.21
2019-05-06T01:40:23.894Z,1003.23
2019-05-06T01:41:24.570Z,1003.25
2019-05-06T01:42:24.578Z,1003.24
2019-05-06T01:43:24.161Z,1003.26
2019-05-06T01:44:24.545Z,1003.21
2019-05-06T01:45:23.822Z,1003.21
2019-05-06T01:46:24.955Z,1003.25
2019-05-06T01:47:24.206Z,1003.28
2019-05-06T01:48:24.558Z,1003.27
2019-05-06T01:49:26.071Z,1003.27
2019-05-06T01:50:25.065Z,1003.29
2019-05-06T01:51:24.954Z,1003.36
2019-05-06T01:52:25.166Z,1003.34
2019-05-06T01:53:26.059Z,1003.33
2019-05-06T01:54:25.540Z,1003.28
2019-05-06T01:55:25.682Z,1003.39
2019-05-06T01:56:25.828Z,1003.36
2019-05-06T01:57:25.991Z,1003.38
2019-05-06T01:58:26.133Z,1003.35
2019-05-06T01:59:27.058Z,1003.29
2019-05-06T02:00:26.407Z,1003.34
2019-05-06T02:01:26.553Z,1003.32
2019-05-06T02:02:26.712Z,1003.39
2019-05-06T02:03:26.870Z,1003.38
2019-05-06T02:04:27.020Z,1003.37
2019-05-06T02:05:27.161Z,1003.35
2019-05-06T02:06:27.301Z,1003.36
2019-05-06T02:07:27.575Z,1003.37
2019-05-06T02:08:27.620Z,1003.36
2019-05-06T02:09:27.774Z,1003.34
2019-05-06T02:10:28.552Z,1003.37
2019-05-06T02:11:28.183Z,1003.36
2019-05-06T02:12:28.369Z,1003.40
2019-05-06T02:13:28.543Z,1003.35
2019-05-06T02:14:28.730Z,1003.37
2019-05-06T02:15:28.889Z,1003.43
2019-05-06T02:16:29.568Z,1003.42
2019-05-06T02:17:29.225Z,1003.41
2019-05-06T02:18:29.369Z,1003.42
2019-05-06T02:19:29.531Z,1003.41
2019-05-06T02:20:29.667Z,1003.33
2019-05-06T02:21:29.788Z,1003.42
2019-05-06T02:22:29.911Z,1003.40
2019-05-06T02:23:30.037Z,1003.41
2019-05-06T02:24:30.189Z,1003.34
2019-05-06T02:25:30.304Z,1003.44
2019-05-06T02:26:30.446Z,1003.43
2019-05-06T02:27:30.627Z,1003.42
2019-05-06T02:28:30.750Z,1003.40
2019-05-06T02:29:30.919Z,1003.46
2019-05-06T02:30:31.058Z,1003.49
2019-05-06T02:31:31.211Z,1003.44
2019-05-06T02:32:31.944Z,1003.50
2019-05-06T02:33:31.566Z,1003.48
2019-05-06T02:34:31.731Z,1003.49
2019-05-06T02:35:34.754Z,1003.46
2019-05-06T02:36:34.454Z,1003.46
2019-05-06T02:37:34.959Z,1003.47
2019-05-06T02:38:39.740Z,1003.51
2019-05-06T02:39:34.714Z,1003.48
2019-05-06T02:40:33.823Z,1003.50
2019-05-06T02:41:33.838Z,1003.46
2019-05-06T02:42:35.067Z,1003.45
2019-05-06T02:43:34.726Z,1003.46
2019-05-06T02:44:34.508Z,1003.51
2019-05-06T02:45:33.823Z,1003.51
2019-05-06T02:46:34.029Z,1003.52
2019-05-06T02:47:34.961Z,1003.48
2019-05-06T02:48:35.070Z,1003.45
2019-05-06T02:49:34.463Z,1003.49
2019-05-06T02:50:34.604Z,1003.43
2019-05-06T02:51:34.778Z,1003.40
2019-05-06T02:52:34.941Z,1003.45
2019-05-06T02:53:35.084Z,1003.43
2019-05-06T02:54:36.078Z,1003.41
2019-05-06T02:55:36.267Z,1003.43
2019-05-06T02:56:36.648Z,1003.46
2019-05-06T02:57:36.763Z,1003.44
2019-05-06T02:58:35.913Z,1003.40
2019-05-06T02:59:37.074Z,1003.42
2019-05-06T03:00:36.203Z,1003.41
2019-05-06T03:01:36.359Z,1003.43
2019-05-06T03:02:43.263Z,1003.37
2019-05-06T03:03:39.559Z,1003.39
2019-05-06T03:04:36.909Z,1003.33
2019-05-06T03:05:38.062Z,1003.31
2019-05-06T03:06:38.320Z,1003.33
2019-05-06T03:07:37.841Z,1003.34
2019-05-06T03:08:39.061Z,1003.27
2019-05-06T03:09:37.805Z,1003.33
2019-05-06T03:10:37.945Z,1003.30
2019-05-06T03:11:38.135Z,1003.26
2019-05-06T03:12:38.323Z,1003.23
2019-05-06T03:13:38.507Z,1003.27
2019-05-06T03:14:38.658Z,1003.26
2019-05-06T03:15:39.808Z,1003.29
2019-05-06T03:16:39.047Z,1003.24
2019-05-06T03:17:39.237Z,1003.29
2019-05-06T03:18:39.385Z,1003.24
2019-05-06T03:19:39.530Z,1003.26
2019-05-06T03:20:39.663Z,1003.24
2019-05-06T03:21:39.823Z,1003.27
2019-05-06T03:22:43.276Z,1003.28
2019-05-06T03:23:43.322Z,1003.32
2019-05-06T03:24:43.360Z,1003.20
2019-05-06T03:25:43.728Z,1003.21
2019-05-06T03:26:43.780Z,1003.25
2019-05-06T03:27:43.889Z,1003.24
2019-05-06T03:28:44.107Z,1003.26
2019-05-06T03:29:44.179Z,1003.27
2019-05-06T03:30:45.773Z,1003.22
2019-05-06T03:31:46.250Z,1003.29
2019-05-06T03:33:18.733Z,1003.28
2019-05-06T03:33:58.510Z,1003.25
2019-05-06T03:35:01.132Z,1003.28
2019-05-06T03:36:00.715Z,1003.29
2019-05-06T03:36:48.618Z,1003.26
2019-05-06T03:37:44.120Z,1003.26
2019-05-06T03:38:43.831Z,1003.31
2019-05-06T03:39:43.508Z,1003.29
2019-05-06T03:40:45.915Z,1003.32
2019-05-06T03:41:44.299Z,1003.28
2019-05-06T03:42:43.415Z,1003.30
2019-05-06T03:43:43.814Z,1003.28
2019-05-06T03:44:43.736Z,1003.29
2019-05-06T03:45:43.913Z,1003.34
2019-05-06T03:46:44.086Z,1003.30
2019-05-06T03:47:44.260Z,1003.25
2019-05-06T03:48:44.621Z,1003.21
2019-05-06T03:49:44.547Z,1003.24
2019-05-06T03:50:44.700Z,1003.24
2019-05-06T03:51:44.875Z,1003.20
2019-05-06T03:52:45.058Z,1003.25
2019-05-06T03:53:46.067Z,1003.18
2019-05-06T03:54:45.463Z,1003.21
2019-05-06T03:55:47.192Z,1003.20
2019-05-06T03:56:46.812Z,1003.18
2019-05-06T03:57:46.950Z,1003.21
2019-05-06T03:58:47.059Z,1003.19
2019-05-06T03:59:46.337Z,1003.23
2019-05-06T04:00:46.506Z,1003.25
2019-05-06T04:01:46.672Z,1003.28
2019-05-06T04:02:46.849Z,1003.29
2019-05-06T04:03:52.273Z,1003.25
2019-05-06T04:04:49.284Z,1003.22
2019-05-06T04:05:47.398Z,1003.27
2019-05-06T04:06:47.547Z,1003.26
2019-05-06T04:07:47.705Z,1003.27
2019-05-06T04:08:47.829Z,1003.30
2019-05-06T04:09:48.007Z,1003.28
2019-05-06T04:10:48.575Z,1003.22
2019-05-06T04:11:48.356Z,1003.28
2019-05-06T04:12:48.522Z,1003.28
2019-05-06T04:13:48.678Z,1003.22
2019-05-06T04:14:49.568Z,1003.23
2019-05-06T04:15:48.973Z,1003.20
2019-05-06T04:16:49.129Z,1003.22
2019-05-06T04:17:49.303Z,1003.29
2019-05-06T04:18:49.471Z,1003.26
2019-05-06T04:19:49.616Z,1003.27
2019-05-06T04:20:52.927Z,1003.27
2019-05-06T04:21:53.179Z,1003.30
2019-05-06T04:22:53.167Z,1003.23
2019-05-06T04:23:53.490Z,1003.22
2019-05-06T04:24:53.858Z,1003.24
2019-05-06T04:25:52.683Z,1003.22
2019-05-06T04:26:53.442Z,1003.27
2019-05-06T04:27:53.765Z,1003.28
2019-05-06T04:28:53.410Z,1003.26
2019-05-06T04:29:54.330Z,1003.27
2019-05-06T04:30:54.831Z,1003.24
2019-05-06T04:31:53.940Z,1003.30
2019-05-06T04:32:53.314Z,1003.30
2019-05-06T04:34:08.481Z,1003.32
2019-05-06T04:34:54.218Z,1003.30
2019-05-06T04:35:54.249Z,1003.32
2019-05-06T04:36:53.702Z,1003.36
2019-05-06T04:37:53.825Z,1003.31
2019-05-06T04:38:54.278Z,1003.32
2019-05-06T04:39:54.046Z,1003.31
2019-05-06T04:40:54.089Z,1003.28
2019-05-06T04:41:54.444Z,1003.30
2019-05-06T04:42:53.577Z,1003.29
2019-05-06T04:43:53.762Z,1003.29
2019-05-06T04:44:53.936Z,1003.28
2019-05-06T04:45:54.381Z,1003.28
2019-05-06T04:46:54.664Z,1003.31
2019-05-06T04:47:55.516Z,1003.28
2019-05-06T04:48:55.085Z,1003.33
2019-05-06T04:49:54.866Z,1003.26
2019-05-06T04:50:54.994Z,1003.19
2019-05-06T04:51:55.168Z,1003.21
2019-05-06T04:52:55.322Z,1003.23
2019-05-06T04:53:55.469Z,1003.20
2019-05-06T04:54:55.604Z,1003.16
2019-05-06T04:55:55.762Z,1003.15
2019-05-06T04:56:55.920Z,1003.16
2019-05-06T04:57:56.051Z,1003.19
2019-05-06T04:58:56.189Z,1003.10
2019-05-06T04:59:56.332Z,1003.06
2019-05-06T05:00:56.490Z,1003.14
2019-05-06T05:01:56.659Z,1003.15
2019-05-06T05:02:56.795Z,1003.11
2019-05-06T05:03:56.925Z,1003.17
2019-05-06T05:04:57.071Z,1003.14
2019-05-06T05:05:57.222Z,1003.20
2019-05-06T05:06:57.426Z,1003.06
2019-05-06T05:07:57.594Z,1003.11
2019-05-06T05:08:57.760Z,1003.14
2019-05-06T05:09:57.911Z,1003.09
2019-05-06T05:10:58.065Z,1003.11
2019-05-06T05:11:58.246Z,1003.02
2019-05-06T05:12:58.420Z,1003.07
2019-05-06T05:13:58.590Z,1003.03
2019-05-06T05:14:58.758Z,1003.02
2019-05-06T05:15:58.925Z,1003.03
2019-05-06T05:16:59.085Z,1003.03
2019-05-06T05:17:59.254Z,1003.01
2019-05-06T05:18:59.416Z,1002.95
2019-05-06T05:20:02.023Z,1003.06
2019-05-06T05:20:59.711Z,1003.10
2019-05-06T05:21:59.829Z,1003.05
2019-05-06T05:22:59.990Z,1002.97
2019-05-06T05:24:01.989Z,1003.05
2019-05-06T05:25:03.283Z,1002.99
2019-05-06T05:26:02.722Z,1003.12
2019-05-06T05:27:03.026Z,1003.07
2019-05-06T05:28:02.211Z,1003.14
2019-05-06T05:29:02.862Z,1003.09
2019-05-06T05:30:02.318Z,1003.06
2019-05-06T05:31:03.033Z,1003.11
2019-05-06T05:32:02.198Z,1003.06
2019-05-06T05:33:02.903Z,1003.14
2019-05-06T05:34:02.294Z,1003.14
2019-05-06T05:35:03.350Z,1003.15
2019-05-06T05:36:02.599Z,1003.10
2019-05-06T05:37:03.573Z,1003.20
2019-05-06T05:38:03.113Z,1003.22
2019-05-06T05:39:04.191Z,1003.21
2019-05-06T05:40:03.405Z,1003.15
2019-05-06T05:41:03.559Z,1003.25
2019-05-06T05:42:03.701Z,1003.20
2019-05-06T05:43:03.843Z,1003.20
2019-05-06T05:44:03.978Z,1003.25
2019-05-06T05:45:04.123Z,1003.27
2019-05-06T05:46:04.286Z,1003.28
2019-05-06T05:47:04.423Z,1003.28
2019-05-06T05:48:04.542Z,1003.35
2019-05-06T05:49:04.686Z,1003.31
2019-05-06T05:50:04.829Z,1003.25
2019-05-06T05:51:04.989Z,1003.31
2019-05-06T05:52:06.123Z,1003.40
2019-05-06T05:53:05.349Z,1003.35
2019-05-06T05:54:05.492Z,1003.36
2019-05-06T05:55:05.642Z,1003.36
2019-05-06T05:56:05.810Z,1003.31
2019-05-06T05:57:05.982Z,1003.34
2019-05-06T05:58:07.075Z,1003.40
2019-05-06T05:59:06.297Z,1003.39
2019-05-06T06:00:07.425Z,1003.31
2019-05-06T06:01:06.573Z,1003.34
2019-05-06T06:02:06.725Z,1003.33
2019-05-06T06:03:07.446Z,1003.38
2019-05-06T06:04:07.999Z,1003.30
2019-05-06T06:05:07.133Z,1003.31
2019-05-06T06:06:07.310Z,1003.30
2019-05-06T06:07:07.475Z,1003.32
2019-05-06T06:08:07.607Z,1003.37
2019-05-06T06:09:07.744Z,1003.39
2019-05-06T06:10:07.931Z,1003.36
2019-05-06T06:11:08.106Z,1003.29
2019-05-06T06:12:08.289Z,1003.34
2019-05-06T06:13:08.438Z,1003.32
2019-05-06T06:14:08.584Z,1003.30
2019-05-06T06:15:08.733Z,1003.37
2019-05-06T06:16:08.874Z,1003.31
2019-05-06T06:17:09.049Z,1003.27
2019-05-06T06:18:09.183Z,1003.31
2019-05-06T06:19:09.307Z,1003.31
2019-05-06T06:20:09.451Z,1003.34
2019-05-06T06:21:18.809Z,1003.35
2019-05-06T06:22:11.832Z,1003.39
2019-05-06T06:23:10.876Z,1003.28
2019-05-06T06:24:09.995Z,1003.28
2019-05-06T06:25:13.997Z,1003.23
2019-05-06T06:26:12.136Z,1003.23
2019-05-06T06:27:12.451Z,1003.20
2019-05-06T06:28:11.948Z,1003.23
2019-05-06T06:29:12.489Z,1003.22
2019-05-06T06:30:12.816Z,1003.19
2019-05-06T06:31:12.041Z,1003.18
2019-05-06T06:32:13.784Z,1003.19
2019-05-06T06:33:12.959Z,1003.12
2019-05-06T06:34:13.003Z,1003.24
2019-05-06T06:35:14.714Z,1003.10
2019-05-06T06:36:13.047Z,1003.07
2019-05-06T06:37:13.247Z,1003.09
2019-05-06T06:38:13.459Z,1003.16
2019-05-06T06:39:13.089Z,1003.15
2019-05-06T06:40:13.577Z,1003.18
2019-05-06T06:41:12.823Z,1003.17
2019-05-06T06:42:12.988Z,1003.21
2019-05-06T06:43:13.123Z,1003.20
2019-05-06T06:44:13.353Z,1003.10
2019-05-06T06:45:14.355Z,1003.16
2019-05-06T06:46:13.589Z,1003.15
2019-05-06T06:47:13.704Z,1003.19
2019-05-06T06:48:13.942Z,1003.09
2019-05-06T06:49:14.231Z,1003.07
2019-05-06T06:50:14.336Z,1003.10
2019-05-06T06:51:14.475Z,1003.04
2019-05-06T06:52:15.026Z,1003.04
2019-05-06T06:53:15.749Z,1003.12
2019-05-06T06:54:15.996Z,1003.07
2019-05-06T06:55:15.096Z,1003.10
2019-05-06T06:56:15.221Z,1003.11
2019-05-06T06:57:15.479Z,1003.05
2019-05-06T06:58:15.579Z,1003.09
2019-05-06T06:59:15.865Z,1003.07
2019-05-06T07:00:16.015Z,1003.10
2019-05-06T07:01:16.166Z,1003.03
2019-05-06T07:02:16.326Z,1003.05
2019-05-06T07:03:16.501Z,1003.03
2019-05-06T07:04:16.621Z,1003.04
2019-05-06T07:05:25.507Z,1003.06
2019-05-06T07:06:18.982Z,1003.01
2019-05-06T07:07:17.182Z,1002.94
2019-05-06T07:08:31.381Z,1003.05
2019-05-06T07:09:18.457Z,1002.98
2019-05-06T07:10:17.696Z,1002.96
2019-05-06T07:11:18.086Z,1003.01
2019-05-06T07:12:18.036Z,1002.99
2019-05-06T07:13:18.099Z,1002.99
2019-05-06T07:14:18.253Z,1002.98
2019-05-06T07:15:18.390Z,1002.95
2019-05-06T07:16:20.710Z,1002.94
2019-05-06T07:17:19.581Z,1002.96
2019-05-06T07:18:18.828Z,1002.96
2019-05-06T07:19:18.982Z,1002.91
2019-05-06T07:20:19.103Z,1002.94
2019-05-06T07:21:19.289Z,1002.92
2019-05-06T07:22:19.435Z,1002.90
2019-05-06T07:23:19.611Z,1002.89
2019-05-06T07:24:22.672Z,1002.84
2019-05-06T07:25:22.116Z,1002.89
2019-05-06T07:26:20.255Z,1002.78
2019-05-06T07:27:22.426Z,1002.80
2019-05-06T07:28:22.807Z,1002.75
2019-05-06T07:29:25.792Z,1002.82
2019-05-06T07:30:23.079Z,1002.78
2019-05-06T07:31:26.382Z,1002.80
2019-05-06T07:32:23.240Z,1002.76
2019-05-06T07:33:23.068Z,1002.77
2019-05-06T07:34:22.959Z,1002.79
2019-05-06T07:35:37.428Z,1002.73
2019-05-06T07:36:24.045Z,1002.75
2019-05-06T07:37:22.303Z,1002.76
2019-05-06T07:38:23.536Z,1002.71
2019-05-06T07:39:24.230Z,1002.71
2019-05-06T07:40:24.575Z,1002.72
2019-05-06T07:41:23.565Z,1002.75
2019-05-06T07:42:24.284Z,1002.66
2019-05-06T07:43:23.415Z,1002.70
2019-05-06T07:44:23.549Z,1002.64
2019-05-06T07:45:23.710Z,1002.65
2019-05-06T07:46:23.885Z,1002.61
2019-05-06T07:47:24.109Z,1002.54
2019-05-06T07:48:24.266Z,1002.52
2019-05-06T07:49:24.428Z,1002.53
2019-05-06T07:50:24.618Z,1002.54
2019-05-06T07:51:24.749Z,1002.55
2019-05-06T07:52:24.887Z,1002.51
2019-05-06T07:53:25.045Z,1002.50
2019-05-06T07:54:25.184Z,1002.41
2019-05-06T07:55:25.355Z,1002.45
2019-05-06T07:56:25.515Z,1002.45
2019-05-06T07:57:26.573Z,1002.32
2019-05-06T07:58:25.809Z,1002.36
2019-05-06T07:59:25.962Z,1002.35
2019-05-06T08:00:26.587Z,1002.43
2019-05-06T08:01:26.357Z,1002.42
2019-05-06T08:02:26.514Z,1002.37
2019-05-06T08:03:26.669Z,1002.36
2019-05-06T08:04:26.845Z,1002.37
2019-05-06T08:05:27.042Z,1002.28
2019-05-06T08:06:27.207Z,1002.33
2019-05-06T08:07:27.357Z,1002.30
2019-05-06T08:08:27.501Z,1002.28
2019-05-06T08:09:27.697Z,1002.27
2019-05-06T08:10:27.885Z,1002.25
2019-05-06T08:11:28.074Z,1002.28
2019-05-06T08:12:28.242Z,1002.26
2019-05-06T08:13:28.396Z,1002.23
2019-05-06T08:14:28.558Z,1002.17
2019-05-06T08:15:28.717Z,1002.16
2019-05-06T08:16:28.893Z,1002.04
2019-05-06T08:17:29.041Z,1002.08
2019-05-06T08:18:29.184Z,1002.05
2019-05-06T08:19:29.359Z,1002.03
2019-05-06T08:20:29.498Z,1002.02
2019-05-06T08:21:29.650Z,1001.97
2019-05-06T08:22:29.820Z,1001.94
2019-05-06T08:23:32.400Z,1001.91
2019-05-06T08:24:30.150Z,1001.90
2019-05-06T08:25:32.836Z,1001.87
2019-05-06T08:26:32.294Z,1001.75
2019-05-06T08:27:32.870Z,1001.75
2019-05-06T08:28:38.647Z,1001.79
2019-05-06T08:29:33.219Z,1001.76
2019-05-06T08:30:32.435Z,1001.72
2019-05-06T08:31:32.775Z,1001.72
2019-05-06T08:32:32.547Z,1001.74
2019-05-06T08:33:32.710Z,1001.77
2019-05-06T08:34:34.261Z,1001.72
2019-05-06T08:35:33.186Z,1001.75
2019-05-06T08:36:33.202Z,1001.62
2019-05-06T08:37:32.431Z,1001.74
2019-05-06T08:38:32.744Z,1001.54
2019-05-06T08:39:33.762Z,1001.52
2019-05-06T08:40:33.599Z,1001.44
2019-05-06T08:41:33.362Z,1001.22
2019-05-06T08:42:33.310Z,1001.38
2019-05-06T08:43:33.514Z,1001.08
2019-05-06T08:44:33.688Z,1001.01
2019-05-06T08:45:33.817Z,1001.05
2019-05-06T08:46:33.968Z,1001.03
2019-05-06T08:47:34.110Z,1001.05
2019-05-06T08:48:34.261Z,1001.10
2019-05-06T08:49:34.602Z,1001.01
2019-05-06T08:50:34.598Z,1000.92
2019-05-06T08:51:34.730Z,1000.97
2019-05-06T08:52:34.875Z,1000.97
2019-05-06T08:53:35.603Z,1001.00
2019-05-06T08:54:35.267Z,1001.01
2019-05-06T08:55:35.400Z,1001.10
2019-05-06T08:56:35.542Z,1001.09
2019-05-06T08:57:35.695Z,1001.24
2019-05-06T08:58:35.854Z,1001.18
2019-05-06T08:59:36.084Z,1001.31
2019-05-06T09:00:36.262Z,1001.24
2019-05-06T09:01:36.429Z,1001.39
2019-05-06T09:02:36.572Z,1001.35
2019-05-06T09:03:36.736Z,1001.43
2019-05-06T09:04:36.924Z,1001.44
2019-05-06T09:05:37.087Z,1001.54
2019-05-06T09:06:37.264Z,1001.47
2019-05-06T09:07:37.405Z,1001.55
2019-05-06T09:08:37.568Z,1001.56
2019-05-06T09:09:37.735Z,1001.56
2019-05-06T09:10:37.871Z,1001.59
2019-05-06T09:11:39.026Z,1001.56
2019-05-06T09:12:38.263Z,1001.63
2019-05-06T09:13:38.412Z,1001.60
2019-05-06T09:14:38.569Z,1001.65
2019-05-06T09:15:38.725Z,1001.67
2019-05-06T09:16:38.869Z,1001.61
2019-05-06T09:17:39.032Z,1001.64
2019-05-06T09:18:39.201Z,1001.61
2019-05-06T09:19:39.388Z,1001.61
2019-05-06T09:20:39.523Z,1001.50
2019-05-06T09:21:43.378Z,1001.46
2019-05-06T09:22:42.870Z,1001.45
2019-05-06T09:23:42.216Z,1001.41
2019-05-06T09:24:42.470Z,1001.23
2019-05-06T09:25:42.323Z,1001.26
2019-05-06T09:26:42.945Z,1001.12
2019-05-06T09:27:42.206Z,1001.09
2019-05-06T09:28:42.662Z,1001.07
2019-05-06T09:29:42.938Z,1000.92
2019-05-06T09:30:43.169Z,1000.87
2019-05-06T09:31:42.710Z,1000.85
2019-05-06T09:32:42.981Z,1000.72
2019-05-06T09:33:42.722Z,1000.66
2019-05-06T09:34:43.038Z,1000.61
2019-05-06T09:35:43.045Z,1000.62
2019-05-06T09:36:51.509Z,1000.59
2019-05-06T09:37:44.348Z,1000.57
2019-05-06T09:38:42.625Z,1000.43
2019-05-06T09:39:43.224Z,1000.42
2019-05-06T09:40:43.963Z,1000.33
2019-05-06T09:41:47.419Z,1000.32
2019-05-06T09:42:45.336Z,1000.31
2019-05-06T09:43:43.610Z,1000.26
2019-05-06T09:44:43.751Z,1000.21
2019-05-06T09:45:43.912Z,1000.27
2019-05-06T09:46:44.044Z,1000.23
2019-05-06T09:47:44.224Z,1000.19
2019-05-06T09:48:44.380Z,1000.23
2019-05-06T09:49:44.536Z,1000.25
2019-05-06T09:50:46.152Z,1000.32
2019-05-06T09:51:45.895Z,1000.31
2019-05-06T09:52:45.175Z,1000.27
2019-05-06T09:53:45.340Z,1000.16
2019-05-06T09:54:46.115Z,1000.19
2019-05-06T09:55:45.624Z,1000.24
2019-05-06T09:56:45.811Z,1000.28
2019-05-06T09:57:46.011Z,1000.27
2019-05-06T09:58:47.109Z,1000.36
2019-05-06T09:59:47.104Z,1000.36
2019-05-06T10:00:46.610Z,1000.38
2019-05-06T10:01:46.770Z,1000.35
2019-05-06T10:02:49.476Z,1000.35
2019-05-06T10:03:48.137Z,1000.35
2019-05-06T10:04:47.274Z,1000.37
2019-05-06T10:05:47.429Z,1000.32
2019-05-06T10:06:56.355Z,1000.25
2019-05-06T10:07:49.718Z,1000.20
2019-05-06T10:08:47.943Z,1000.21
2019-05-06T10:09:48.142Z,1000.20
2019-05-06T10:10:56.933Z,1000.15
2019-05-06T10:11:52.425Z,1000.16
2019-05-06T10:12:48.647Z,1000.11
2019-05-06T10:13:48.812Z,1000.00
2019-05-06T10:14:48.959Z,999.96
2019-05-06T10:15:49.108Z,999.95
2019-05-06T10:16:52.224Z,999.92
2019-05-06T10:17:52.036Z,999.92
2019-05-06T10:18:49.613Z,999.80
2019-05-06T10:19:49.766Z,999.78
2019-05-06T10:20:49.949Z,999.70
2019-05-06T10:21:50.117Z,999.71
2019-05-06T10:22:52.367Z,999.77
2019-05-06T10:23:52.858Z,999.82
2019-05-06T10:24:52.271Z,999.73
2019-05-06T10:25:52.299Z,999.77
2019-05-06T10:26:52.404Z,999.90
2019-05-06T10:27:52.496Z,999.88
2019-05-06T10:28:52.526Z,999.99
2019-05-06T10:29:52.186Z,999.98
2019-05-06T10:30:52.724Z,1000.03
2019-05-06T10:31:52.452Z,1000.01
2019-05-06T10:32:53.619Z,1000.04
2019-05-06T10:33:53.134Z,1000.05
2019-05-06T10:34:53.399Z,1000.08
2019-05-06T10:35:53.007Z,1000.03
2019-05-06T10:36:53.746Z,1000.01
2019-05-06T10:37:52.906Z,1000.10
2019-05-06T10:38:53.621Z,1000.05
2019-05-06T10:39:53.623Z,1000.03
2019-05-06T10:41:02.887Z,999.97
2019-05-06T10:41:55.555Z,999.96
2019-05-06T10:42:53.688Z,999.94
2019-05-06T10:43:53.856Z,999.93
2019-05-06T10:44:54.041Z,999.84
2019-05-06T10:45:54.210Z,999.80
2019-05-06T10:46:54.447Z,999.75
2019-05-06T10:47:54.619Z,999.67
2019-05-06T10:48:54.818Z,999.66
2019-05-06T10:49:54.993Z,999.67
2019-05-06T10:50:55.137Z,999.61
2019-05-06T10:51:55.356Z,999.65
2019-05-06T10:52:55.515Z,999.63
2019-05-06T10:53:55.680Z,999.51
2019-05-06T10:54:55.856Z,999.58
2019-05-06T10:55:56.040Z,999.57
2019-05-06T10:56:57.373Z,999.57
2019-05-06T10:57:57.364Z,999.60
2019-05-06T10:58:56.499Z,999.60
2019-05-06T10:59:56.689Z,999.63
2019-05-06T11:00:56.852Z,999.65
2019-05-06T11:01:57.026Z,999.61
2019-05-06T11:02:57.174Z,999.72
2019-05-06T11:03:57.344Z,999.74
2019-05-06T11:04:58.154Z,999.73
2019-05-06T11:05:57.643Z,999.63
2019-05-06T11:06:57.795Z,999.71
2019-05-06T11:07:57.897Z,999.77
2019-05-06T11:08:58.022Z,999.68
2019-05-06T11:09:58.159Z,999.71
2019-05-06T11:11:12.454Z,999.67
2019-05-06T11:12:00.450Z,999.62
2019-05-06T11:12:58.685Z,999.57
2019-05-06T11:13:58.847Z,999.59
2019-05-06T11:14:59.018Z,999.59
2019-05-06T11:16:00.152Z,999.60
2019-05-06T11:16:59.425Z,999.57
2019-05-06T11:18:04.085Z,999.49
2019-05-06T11:19:02.091Z,999.50
2019-05-06T11:19:59.881Z,999.49
2019-05-06T11:21:00.095Z,999.45
2019-05-06T11:22:03.371Z,999.44
2019-05-06T11:23:02.147Z,999.44
2019-05-06T11:24:00.641Z,999.42
2019-05-06T11:25:03.064Z,999.38
2019-05-06T11:26:03.071Z,999.44
2019-05-06T11:27:03.508Z,999.37
2019-05-06T11:28:02.960Z,999.40
2019-05-06T11:29:05.160Z,999.37
2019-05-06T11:30:02.786Z,999.36
2019-05-06T11:31:02.628Z,999.42
2019-05-06T11:32:03.089Z,999.43
2019-05-06T11:33:04.567Z,999.44
2019-05-06T11:34:03.445Z,999.45
2019-05-06T11:35:03.911Z,999.46
2019-05-06T11:36:03.738Z,999.52
2019-05-06T11:37:02.916Z,999.54
2019-05-06T11:38:03.081Z,999.59
2019-05-06T11:39:03.245Z,999.56
2019-05-06T11:40:03.380Z,999.60
2019-05-06T11:41:03.537Z,999.59
2019-05-06T11:42:23.878Z,999.57
2019-05-06T11:43:05.898Z,999.65
2019-05-06T11:44:04.125Z,999.60
2019-05-06T11:45:04.239Z,999.60
2019-05-06T11:46:04.398Z,999.64
2019-05-06T11:47:04.582Z,999.58
2019-05-06T11:48:04.706Z,999.58
2019-05-06T11:49:04.854Z,999.58
2019-05-06T11:50:05.221Z,999.59
2019-05-06T11:51:06.170Z,999.68
2019-05-06T11:52:05.296Z,999.70
2019-05-06T11:53:05.436Z,999.71
2019-05-06T11:54:16.328Z,999.69
2019-05-06T11:55:07.825Z,999.67
2019-05-06T11:56:06.149Z,999.67
2019-05-06T11:57:06.173Z,999.68
2019-05-06T11:58:07.136Z,999.79
2019-05-06T11:59:06.511Z,999.81
2019-05-06T12:00:06.655Z,999.67
2019-05-06T12:01:06.822Z,999.76
2019-05-06T12:02:06.965Z,999.71
2019-05-06T12:03:07.088Z,999.74
2019-05-06T12:04:08.342Z,999.77
2019-05-06T12:05:08.144Z,999.72
2019-05-06T12:06:07.782Z,999.73
2019-05-06T12:07:11.070Z,999.70
2019-05-06T12:08:13.696Z,999.79
2019-05-06T12:09:15.722Z,999.76
2019-05-06T12:10:09.581Z,999.78
2019-05-06T12:11:08.815Z,999.78